EHPG

P11-b Sea

P11-b Sea, The Netherlands
METAR EHPG 170555Z AUTO 33011KT 260V070 9999 FEW026 SCT029 07/02 Q1021 W///H///
Observed Flight Rules
Dec-17 @ 05:55 UTC (26 minutes ago) Visual Flight Rules
Wind Visibility Clouds
330° at 11 knots 10,000+ meters
  • Few at 2,600' AGL
  • Scattered at 2,900' AGL
Temperatures Readings
Current 7°C / 45°F
Dewpoint 2°C / 36°F
Humidity 71%
Altimeter 30.15" Hg
Pressure 1021 hPa
Elevation 50
METAR EHPG 170555Z AUTO 33011KT 260V070 9999 FEW026 SCT029 07/02 Q1021 W///H///
Observed Flight Rules
Dec-17 @ 05:55 UTC
(26 minutes ago)
VFR
Wind Visibility
330° at 11 knots 10,000+ meters
Clouds
  • Few at 2,600' AGL
  • Scattered at 2,900' AGL
Temperature Dewpoint
7°C / 45°F 2°C / 36°F
Humidity Altimeter Pressure
71% 30.15" Hg 1021 hPa